WMKM METAR and TAF | Updated Today

WMKM METAR

Malacca Airport

Observation time: 27 min. ago

WMKM 060800Z VRB05KT 9999 FEW020 30/23 Q1009

Need help? Read our tutorial on how to read METARs or read the parsed version below.

Malacca Airport (WMKM) METAR

  • Weather conditions on Mon, 06 Dec 2021 08:00:00 +0000 (27 min. ago):
  • Present conditions: Dry
  • Clouds: A few at 610 meters
  • Visibility: Greater than 10 km
  • Wind: Variable at 5 knots
  • Temperature: 30 celsius
  • Dew point: 23 celsius
  • Pressure: 1009 millibars
  • Remarks: None


Useful to know...

WMKM TAF

Malacca Airport

TAF WMKM 060500Z 0606/0706 04006KT 9999 FEW020 PROB30 TEMPO 0618/0622 4000 TSRA FEW008 FEW017CB
Observation time: 3:27 hr. ago
Need help? Read our tutorial on how to read TAFs or read the parsed version below.

Parsed version of TAF for Malacca Airport (WMKM)

  • From 06 December at 06:00 UTC, to day 07 of the month at 06:00 UTC
  • Clouds: A few at 610 meters
  • Visibility: Greater than 10 km
  • Wind: 40 degrees at 6
  • Expected to arise temporarily, from 06 December at 18:00 UTC, to day 06 of the month at 22:00 UTC
    Probability of 30%
  • Clouds: A few at 244 meters; a few at 518 meters, cumulonimbus
  • Visibility: 4000 meters
  • Other: Thunderstorms rain